createdAt,value
2019-05-12T00:00:36.144Z,1.82
2019-05-12T00:03:02.787Z,0.50
2019-05-12T00:05:29.489Z,0.70
2019-05-12T00:07:58.712Z,2.92
2019-05-12T00:10:24.654Z,0.70
2019-05-12T00:12:51.300Z,2.02
2019-05-12T00:15:19.259Z,0.72
2019-05-12T00:17:48.093Z,0.70
2019-05-12T00:20:17.777Z,2.10
2019-05-12T00:22:45.530Z,1.40
2019-05-12T00:25:12.278Z,1.45
2019-05-12T00:27:39.153Z,1.30
2019-05-12T00:30:09.647Z,0.98
2019-05-12T00:32:34.845Z,2.08
2019-05-12T00:35:02.480Z,0.60
2019-05-12T00:37:29.056Z,0.50
2019-05-12T00:39:58.174Z,0.82
2019-05-12T00:42:24.253Z,2.60
2019-05-12T00:44:52.045Z,0.85
2019-05-12T00:47:18.908Z,0.75
2019-05-12T00:49:48.563Z,0.93
2019-05-12T00:52:18.640Z,1.70
2019-05-12T00:54:48.090Z,0.53
2019-05-12T00:57:14.556Z,9.55
2019-05-12T00:59:41.109Z,1.92
2019-05-12T01:02:08.056Z,1.25
2019-05-12T01:04:34.867Z,0.65
2019-05-12T01:07:01.494Z,0.50
2019-05-12T01:09:28.297Z,2.83
2019-05-12T01:11:55.118Z,1.67
2019-05-12T01:14:21.723Z,2.17
2019-05-12T01:16:49.012Z,2.25
2019-05-12T01:19:15.642Z,2.42
2019-05-12T01:21:42.277Z,1.72
2019-05-12T01:24:09.186Z,0.88
2019-05-12T01:26:35.921Z,0.50
2019-05-12T01:29:02.980Z,2.00
2019-05-12T01:31:31.376Z,1.05
2019-05-12T01:33:58.593Z,2.12
2019-05-12T01:36:25.412Z,1.27
2019-05-12T01:38:52.012Z,0.88
2019-05-12T01:41:19.651Z,1.22
2019-05-12T01:43:48.639Z,1.55
2019-05-12T01:46:14.724Z,0.60
2019-05-12T01:48:41.352Z,1.57
2019-05-12T01:51:08.439Z,1.15
2019-05-12T01:53:37.633Z,0.62
2019-05-12T01:56:03.878Z,0.82
2019-05-12T01:58:30.521Z,0.82
2019-05-12T02:00:58.925Z,2.05
2019-05-12T02:03:25.692Z,1.15
2019-05-12T02:05:57.944Z,0.65
2019-05-12T02:08:27.911Z,0.82
2019-05-12T02:10:59.367Z,1.55
2019-05-12T02:13:27.689Z,0.42
2019-05-12T02:15:54.461Z,1.45
2019-05-12T02:18:21.092Z,1.17
2019-05-12T02:20:48.338Z,0.55
2019-05-12T02:23:15.140Z,2.12
2019-05-12T02:25:41.742Z,1.35
2019-05-12T02:28:09.312Z,0.40
2019-05-12T02:30:40.691Z,2.05
2019-05-12T02:33:06.056Z,0.68
2019-05-12T02:35:35.419Z,0.42
2019-05-12T02:38:04.423Z,0.70
2019-05-12T02:40:29.807Z,3.02
2019-05-12T02:42:56.491Z,0.72
2019-05-12T02:45:25.208Z,0.45
2019-05-12T02:47:54.369Z,0.82
2019-05-12T02:50:27.719Z,0.42
2019-05-12T02:52:54.741Z,1.30
2019-05-12T02:55:25.396Z,1.07
2019-05-12T02:57:54.917Z,0.50
2019-05-12T03:00:24.218Z,1.27
2019-05-12T03:02:54.747Z,0.65
2019-05-12T03:05:21.073Z,0.25
2019-05-12T03:07:48.470Z,0.65
2019-05-12T03:10:15.312Z,0.53
2019-05-12T03:12:44.955Z,0.30
2019-05-12T03:15:10.573Z,1.47
2019-05-12T03:17:37.209Z,1.40
2019-05-12T03:20:05.600Z,0.95
2019-05-12T03:22:35.364Z,2.33
2019-05-12T03:25:14.764Z,1.05
2019-05-12T03:27:34.863Z,0.28
2019-05-12T03:30:00.193Z,0.70
2019-05-12T03:32:28.200Z,1.00
2019-05-12T03:34:57.851Z,0.20
2019-05-12T03:37:30.940Z,0.50
2019-05-12T03:39:54.634Z,2.62
2019-05-12T03:42:24.792Z,1.22
2019-05-12T03:44:49.903Z,0.53
2019-05-12T03:47:16.550Z,1.60
2019-05-12T03:49:45.455Z,0.90
2019-05-12T03:52:15.041Z,1.07
2019-05-12T03:54:40.413Z,0.60
2019-05-12T03:57:07.032Z,0.98
2019-05-12T03:59:34.881Z,2.90
2019-05-12T04:02:04.773Z,1.92
2019-05-12T04:04:30.332Z,0.50
2019-05-12T04:06:56.940Z,0.80
2019-05-12T04:09:24.687Z,0.35
2019-05-12T04:11:54.565Z,0.90
2019-05-12T04:14:20.052Z,0.60
2019-05-12T04:16:46.663Z,0.82
2019-05-12T04:19:14.691Z,1.15
2019-05-12T04:21:45.535Z,0.17
2019-05-12T04:24:14.326Z,0.30
2019-05-12T04:26:40.723Z,0.25
2019-05-12T04:29:07.352Z,0.50
2019-05-12T04:31:35.219Z,0.50
2019-05-12T04:34:05.221Z,1.52
2019-05-12T04:36:35.520Z,0.30
2019-05-12T04:39:04.216Z,1.67
2019-05-12T04:41:30.635Z,3.02
2019-05-12T04:43:57.407Z,0.40
2019-05-12T04:46:25.378Z,1.77
2019-05-12T04:48:54.689Z,2.50
2019-05-12T04:51:21.422Z,1.75
2019-05-12T04:53:48.032Z,0.90
2019-05-12T04:56:20.087Z,10.23
2019-05-12T04:58:45.008Z,0.40
2019-05-12T05:01:15.589Z,0.42
2019-05-12T05:03:44.073Z,1.87
2019-05-12T05:06:10.007Z,0.37
2019-05-12T05:08:37.751Z,0.78
2019-05-12T05:11:04.392Z,0.55
2019-05-12T05:13:36.630Z,0.50
2019-05-12T05:16:00.258Z,0.90
2019-05-12T05:18:28.027Z,0.80
2019-05-12T05:20:55.625Z,2.30
2019-05-12T05:23:24.143Z,0.85
2019-05-12T05:25:50.808Z,4.47
2019-05-12T05:28:17.421Z,0.60
2019-05-12T05:30:45.624Z,0.80
2019-05-12T05:33:14.521Z,0.90
2019-05-12T05:35:43.626Z,0.95
2019-05-12T05:38:10.867Z,1.37
2019-05-12T05:40:39.012Z,1.00
2019-05-12T05:43:18.154Z,1.15
2019-05-12T05:45:35.426Z,1.00
2019-05-12T05:48:07.460Z,0.40
2019-05-12T05:50:34.341Z,1.05
2019-05-12T05:53:03.986Z,1.87
2019-05-12T05:55:30.869Z,0.70
2019-05-12T05:57:59.822Z,0.72
2019-05-12T06:00:27.368Z,0.60
2019-05-12T06:02:54.608Z,0.68
2019-05-12T06:05:26.461Z,0.60
2019-05-12T06:07:53.441Z,1.57
2019-05-12T06:10:19.463Z,1.40
2019-05-12T06:12:50.678Z,1.65
2019-05-12T06:15:14.731Z,1.40
2019-05-12T06:17:43.714Z,1.35
2019-05-12T06:20:10.173Z,1.05
2019-05-12T06:22:36.811Z,0.88
2019-05-12T06:25:05.217Z,0.70
2019-05-12T06:27:35.720Z,1.32
2019-05-12T06:30:05.936Z,3.72
2019-05-12T06:32:30.023Z,0.82
2019-05-12T06:35:02.241Z,0.40
2019-05-12T06:37:28.692Z,0.80
2019-05-12T06:39:56.510Z,0.60
2019-05-12T06:42:25.672Z,1.22
2019-05-12T06:44:55.040Z,0.98
2019-05-12T06:47:20.925Z,1.50
2019-05-12T06:49:56.391Z,2.77
2019-05-12T06:52:23.656Z,0.95
2019-05-12T06:54:54.686Z,1.35
2019-05-12T06:57:25.299Z,0.93
2019-05-12T06:59:51.431Z,1.50
2019-05-12T07:02:16.224Z,1.70
2019-05-12T07:04:47.470Z,1.22
2019-05-12T07:07:11.427Z,2.45
2019-05-12T07:09:50.959Z,2.17
2019-05-12T07:12:07.332Z,1.82
2019-05-12T07:14:36.046Z,3.70
2019-05-12T07:17:06.027Z,2.25
2019-05-12T07:19:33.796Z,1.47
2019-05-12T07:22:00.732Z,1.87
2019-05-12T07:24:27.329Z,1.80
2019-05-12T07:27:02.755Z,1.30
2019-05-12T07:29:23.886Z,4.03
2019-05-12T07:31:50.674Z,1.50
2019-05-12T07:34:17.271Z,1.50
2019-05-12T07:36:46.224Z,6.15
2019-05-12T07:39:15.427Z,4.08
2019-05-12T07:41:50.723Z,3.58
2019-05-12T07:44:14.311Z,2.92
2019-05-12T07:46:45.701Z,2.77
2019-05-12T07:49:09.574Z,2.58
2019-05-12T07:51:40.527Z,4.90
2019-05-12T07:54:05.778Z,2.72
2019-05-12T07:56:35.680Z,3.22
2019-05-12T07:59:01.264Z,4.95
2019-05-12T08:01:27.946Z,4.50
2019-05-12T08:03:57.179Z,4.85
2019-05-12T08:06:24.473Z,7.50
2019-05-12T08:08:58.116Z,4.12
2019-05-12T08:11:23.599Z,4.58
2019-05-12T08:13:54.231Z,3.87
2019-05-12T08:16:25.633Z,2.90
2019-05-12T08:18:50.331Z,3.33
2019-05-12T08:21:16.975Z,3.47
2019-05-12T08:23:44.422Z,3.02
2019-05-12T08:26:18.281Z,4.90
2019-05-12T08:28:43.988Z,7.33
2019-05-12T08:31:10.870Z,3.72
2019-05-12T08:33:37.446Z,3.37
2019-05-12T08:36:11.506Z,5.53
2019-05-12T08:38:33.690Z,1.98
2019-05-12T08:41:00.492Z,2.20
2019-05-12T08:43:27.501Z,1.92
2019-05-12T08:45:55.434Z,5.47
2019-05-12T08:48:25.057Z,3.12
2019-05-12T08:50:54.647Z,3.20
2019-05-12T08:53:23.553Z,3.27
2019-05-12T08:55:53.854Z,5.42
2019-05-12T08:58:31.627Z,6.30
2019-05-12T09:00:50.693Z,3.83
2019-05-12T09:03:20.338Z,4.60
2019-05-12T09:05:46.805Z,3.52
2019-05-12T09:08:14.590Z,3.90
2019-05-12T09:10:41.242Z,4.08
2019-05-12T09:13:08.971Z,4.45
2019-05-12T09:15:35.855Z,3.95
2019-05-12T09:18:04.862Z,5.50
2019-05-12T09:20:33.153Z,7.15
2019-05-12T09:23:01.900Z,5.87
2019-05-12T09:25:29.345Z,5.40
2019-05-12T09:27:55.955Z,3.65
2019-05-12T09:30:27.268Z,6.85
2019-05-12T09:32:56.864Z,4.95
2019-05-12T09:35:23.661Z,5.22
2019-05-12T09:37:50.355Z,4.25
2019-05-12T09:40:20.718Z,7.25
2019-05-12T09:42:46.812Z,4.87
2019-05-12T09:45:13.923Z,7.85
2019-05-12T09:47:40.719Z,2.98
2019-05-12T09:50:09.809Z,4.72
2019-05-12T09:52:36.313Z,4.78
2019-05-12T09:55:04.334Z,4.55
2019-05-12T09:57:34.710Z,4.35
2019-05-12T10:00:01.460Z,4.60
2019-05-12T10:02:28.230Z,5.42
2019-05-12T10:04:59.244Z,3.92
2019-05-12T10:07:23.719Z,4.35
2019-05-12T10:09:55.020Z,5.28
2019-05-12T10:12:18.898Z,5.53
2019-05-12T10:14:47.378Z,7.28
2019-05-12T10:17:14.725Z,4.55
2019-05-12T10:19:43.268Z,4.72
2019-05-12T10:22:09.840Z,5.12
2019-05-12T10:24:41.507Z,5.12
2019-05-12T10:27:06.111Z,5.08
2019-05-12T10:29:32.747Z,3.55
2019-05-12T10:31:59.386Z,3.58
2019-05-12T10:34:29.248Z,2.40
2019-05-12T10:36:54.610Z,3.33
2019-05-12T10:39:21.255Z,3.33
2019-05-12T10:41:47.904Z,5.67
2019-05-12T10:44:14.677Z,4.42
2019-05-12T10:46:42.516Z,5.72
2019-05-12T10:49:09.303Z,6.50
2019-05-12T10:51:35.910Z,7.67
2019-05-12T10:54:12.104Z,8.00
2019-05-12T10:56:31.361Z,7.97
2019-05-12T10:58:57.959Z,8.30
2019-05-12T11:01:24.639Z,9.83
2019-05-12T11:03:52.602Z,10.58
2019-05-12T11:06:20.036Z,11.33
2019-05-12T11:08:51.119Z,11.22
2019-05-12T11:11:16.413Z,10.00
2019-05-12T11:13:48.314Z,9.28
2019-05-12T11:16:14.689Z,10.95
2019-05-12T11:18:40.335Z,7.03
2019-05-12T11:21:07.050Z,10.80
2019-05-12T11:23:34.481Z,9.60
2019-05-12T11:26:01.230Z,8.48
2019-05-12T11:28:28.084Z,9.10
2019-05-12T11:30:54.789Z,11.40
2019-05-12T11:33:23.627Z,8.90
2019-05-12T11:35:50.980Z,10.88
2019-05-12T11:38:21.364Z,11.10
2019-05-12T11:40:49.806Z,8.85
2019-05-12T11:43:19.641Z,10.32
2019-05-12T11:45:48.125Z,8.58
2019-05-12T11:48:14.699Z,7.87
2019-05-12T11:50:49.396Z,7.60
2019-05-12T11:53:10.685Z,6.33
2019-05-12T11:55:37.299Z,5.70
2019-05-12T11:58:06.895Z,4.45
2019-05-12T12:00:34.379Z,5.37
2019-05-12T12:05:44.402Z,6.28
2019-05-12T12:08:11.152Z,4.37
2019-05-12T12:10:40.593Z,4.58
2019-05-12T12:13:07.861Z,5.83
2019-05-12T12:15:34.709Z,4.97
2019-05-12T12:18:04.018Z,4.67
2019-05-12T12:20:29.907Z,5.25
2019-05-12T12:23:00.176Z,4.47
2019-05-12T12:25:29.749Z,3.62
2019-05-12T12:27:56.400Z,4.75
2019-05-12T12:30:23.753Z,4.17
2019-05-12T12:32:57.156Z,4.67
2019-05-12T12:35:23.186Z,5.20
2019-05-12T12:37:49.416Z,5.45
2019-05-12T12:40:16.655Z,3.35
2019-05-12T12:42:47.067Z,7.90
2019-05-12T12:45:38.432Z,4.60
2019-05-12T12:48:01.991Z,4.03
2019-05-12T12:50:30.600Z,4.40
2019-05-12T12:52:57.441Z,6.70
2019-05-12T12:55:24.307Z,7.60
2019-05-12T12:57:52.043Z,11.63
2019-05-12T13:00:29.736Z,8.98
2019-05-12T13:02:49.363Z,9.15
2019-05-12T13:05:17.103Z,9.93
2019-05-12T13:07:44.013Z,17.10
2019-05-12T13:10:11.045Z,16.75
2019-05-12T13:12:37.638Z,14.40
2019-05-12T13:15:05.851Z,13.62
2019-05-12T13:17:40.030Z,11.48
2019-05-12T13:20:02.371Z,14.50
2019-05-12T13:22:29.745Z,11.45
2019-05-12T13:24:58.226Z,11.28
2019-05-12T13:27:29.133Z,22.58
2019-05-12T13:29:54.186Z,12.47
2019-05-12T13:32:25.955Z,13.72
2019-05-12T13:34:52.031Z,14.47
2019-05-12T13:37:19.591Z,17.62
2019-05-12T13:39:55.236Z,14.75
2019-05-12T13:42:15.041Z,11.43
2019-05-12T13:44:43.596Z,11.93
2019-05-12T13:47:14.019Z,11.25
2019-05-12T13:49:45.375Z,12.90
2019-05-12T13:52:09.702Z,11.83
2019-05-12T13:54:36.578Z,15.05
2019-05-12T13:57:11.628Z,16.87
2019-05-12T13:59:33.943Z,16.75
2019-05-12T14:02:00.385Z,18.45
2019-05-12T14:04:27.804Z,17.37
2019-05-12T14:06:56.889Z,17.23
2019-05-12T14:09:23.996Z,15.20
2019-05-12T14:11:54.850Z,13.55
2019-05-12T14:14:23.893Z,13.50
2019-05-12T14:16:58.884Z,13.13
2019-05-12T14:19:23.314Z,15.53
2019-05-12T14:21:49.477Z,18.48
2019-05-12T14:24:17.204Z,21.30
2019-05-12T14:26:45.469Z,17.15
2019-05-12T14:29:13.808Z,17.57
2019-05-12T14:31:48.491Z,14.65
2019-05-12T14:34:10.549Z,15.95
2019-05-12T14:36:38.114Z,17.77
2019-05-12T14:39:10.145Z,19.98
2019-05-12T14:41:35.959Z,19.05
2019-05-12T14:44:03.662Z,21.57
2019-05-12T14:46:30.480Z,23.30
2019-05-12T14:48:58.139Z,17.73
2019-05-12T14:51:24.867Z,13.58
2019-05-12T14:53:53.440Z,11.35
2019-05-12T14:56:19.942Z,11.45
2019-05-12T14:58:50.221Z,11.12
2019-05-12T15:01:16.303Z,11.97
2019-05-12T15:03:47.625Z,16.27
2019-05-12T15:06:14.115Z,9.48
2019-05-12T15:08:41.030Z,28.87
2019-05-12T15:11:07.897Z,39.90
2019-05-12T15:13:34.689Z,35.55
2019-05-12T15:16:01.363Z,34.53
2019-05-12T15:18:27.992Z,32.65
2019-05-12T15:20:54.654Z,27.98
2019-05-12T15:23:23.846Z,18.02
2019-05-12T15:25:53.660Z,12.93
2019-05-12T15:28:20.118Z,11.78
2019-05-12T15:30:48.600Z,10.40
2019-05-12T15:33:15.220Z,8.13
2019-05-12T15:35:43.973Z,6.35
2019-05-12T15:38:15.060Z,4.33
2019-05-12T15:40:39.760Z,4.67
2019-05-12T15:43:09.170Z,27.27
2019-05-12T15:45:35.869Z,65.30
2019-05-12T15:48:04.095Z,24.32
2019-05-12T15:50:31.001Z,13.10
2019-05-12T15:52:57.619Z,6.15
2019-05-12T15:55:32.981Z,5.15
2019-05-12T15:57:55.731Z,4.87
2019-05-12T16:00:24.455Z,5.72
2019-05-12T16:02:53.336Z,7.12
2019-05-12T16:05:24.841Z,8.75
2019-05-12T16:07:48.683Z,17.52
2019-05-12T16:10:16.324Z,20.23
2019-05-12T16:12:43.698Z,27.05
2019-05-12T16:15:17.063Z,27.25
2019-05-12T16:17:40.221Z,21.30
2019-05-12T16:20:07.334Z,23.80
2019-05-12T16:22:38.833Z,23.10
2019-05-12T16:25:06.436Z,18.23
2019-05-12T16:27:37.087Z,17.65
2019-05-12T16:30:04.550Z,23.20
2019-05-12T16:32:39.472Z,17.48
2019-05-12T16:34:59.183Z,11.40
2019-05-12T16:37:31.348Z,8.80
2019-05-12T16:39:54.730Z,7.20
2019-05-12T16:42:23.483Z,4.87
2019-05-12T16:44:49.923Z,4.47
2019-05-12T16:47:18.651Z,4.42
2019-05-12T16:49:46.350Z,4.50
2019-05-12T16:52:13.882Z,3.72
2019-05-12T16:54:46.037Z,5.30
2019-05-12T16:59:42.819Z,6.10
2019-05-12T17:02:10.685Z,5.37
2019-05-12T17:04:37.544Z,4.70
2019-05-12T17:07:04.156Z,4.47
2019-05-12T17:09:33.088Z,4.72
2019-05-12T17:11:59.315Z,4.75
2019-05-12T17:14:28.569Z,5.15
2019-05-12T17:16:55.132Z,2.65
2019-05-12T17:19:23.612Z,2.58
2019-05-12T17:21:57.576Z,2.58
2019-05-12T17:24:18.842Z,4.85
2019-05-12T17:26:45.453Z,2.65
2019-05-12T17:29:13.975Z,1.57
2019-05-12T17:31:40.666Z,3.00
2019-05-12T17:34:09.233Z,3.47
2019-05-12T17:36:35.833Z,4.55
2019-05-12T17:39:05.532Z,2.55
2019-05-12T17:41:40.328Z,3.52
2019-05-12T17:44:04.327Z,2.72
2019-05-12T17:46:32.285Z,1.72
2019-05-12T17:48:59.604Z,2.75
2019-05-12T17:51:30.788Z,3.80
2019-05-12T17:53:55.207Z,5.37
2019-05-12T17:56:25.322Z,2.58
2019-05-12T17:58:50.307Z,3.20
2019-05-12T18:01:23.104Z,2.12
2019-05-12T18:03:50.607Z,1.80
2019-05-12T18:06:15.267Z,2.85
2019-05-12T18:08:44.326Z,2.62
2019-05-12T18:11:11.995Z,2.08
2019-05-12T18:13:40.141Z,3.33
2019-05-12T18:16:11.567Z,2.45
2019-05-12T18:18:38.052Z,2.08
2019-05-12T18:21:05.300Z,2.20
2019-05-12T18:23:34.184Z,1.92
2019-05-12T18:26:03.198Z,2.33
2019-05-12T18:28:29.543Z,2.40
2019-05-12T18:30:56.481Z,2.12
2019-05-12T18:33:33.249Z,2.52
2019-05-12T18:35:54.275Z,1.87
2019-05-12T18:38:26.106Z,2.90
2019-05-12T18:40:49.955Z,2.45
2019-05-12T18:43:16.578Z,1.95
2019-05-12T18:45:43.185Z,2.30
2019-05-12T18:48:17.874Z,4.42
2019-05-12T18:50:38.251Z,2.02
2019-05-12T18:53:04.887Z,2.22
2019-05-12T18:55:35.898Z,1.50
2019-05-12T18:58:00.364Z,3.77
2019-05-12T19:00:27.849Z,2.85
2019-05-12T19:02:54.745Z,7.05
2019-05-12T19:05:30.625Z,3.10
2019-05-12T19:08:07.306Z,2.52
2019-05-12T19:10:38.599Z,2.35
2019-05-12T19:13:06.486Z,2.65
2019-05-12T19:15:33.311Z,2.83
2019-05-12T19:17:59.471Z,1.98
2019-05-12T19:20:26.088Z,1.85
2019-05-12T19:22:59.380Z,2.15
2019-05-12T19:25:23.624Z,2.50
2019-05-12T19:27:55.468Z,2.42
2019-05-12T19:30:24.781Z,1.98
2019-05-12T19:32:46.872Z,1.17
2019-05-12T19:35:20.045Z,2.15
2019-05-12T19:37:45.389Z,3.50
2019-05-12T19:40:16.656Z,1.30
2019-05-12T19:42:41.368Z,0.95
2019-05-12T19:45:16.327Z,1.95
2019-05-12T19:47:38.546Z,1.95
2019-05-12T19:50:10.662Z,0.68
2019-05-12T19:52:34.351Z,1.47
2019-05-12T19:55:03.494Z,2.15
2019-05-12T19:57:30.120Z,2.83
2019-05-12T19:59:57.302Z,6.58
2019-05-12T20:02:23.895Z,9.08
2019-05-12T20:04:52.071Z,8.25
2019-05-12T20:07:19.192Z,8.33
2019-05-12T20:09:55.099Z,9.90
2019-05-12T20:12:18.745Z,11.63
2019-05-12T20:14:43.740Z,9.78
2019-05-12T20:17:10.331Z,10.55
2019-05-12T20:19:36.903Z,11.18
2019-05-12T20:22:04.776Z,12.25
2019-05-12T20:24:31.339Z,9.88
2019-05-12T20:26:59.387Z,11.48
2019-05-12T20:29:33.448Z,7.70
2019-05-12T20:31:54.600Z,8.03
2019-05-12T20:34:21.190Z,4.80
2019-05-12T20:36:48.148Z,4.28
2019-05-12T20:39:21.406Z,5.97
2019-05-12T20:41:44.681Z,4.92
2019-05-12T20:44:17.085Z,10.38
2019-05-12T20:46:39.987Z,5.58
2019-05-12T20:49:10.623Z,4.90
2019-05-12T20:51:35.018Z,3.40
2019-05-12T20:54:05.538Z,5.65
2019-05-12T20:56:30.526Z,3.83
2019-05-12T20:58:57.193Z,4.35
2019-05-12T21:01:28.369Z,3.85
2019-05-12T21:03:52.662Z,7.83
2019-05-12T21:06:19.261Z,7.03
2019-05-12T21:08:53.318Z,4.80
2019-05-12T21:11:14.495Z,4.37
2019-05-12T21:13:43.797Z,7.08
2019-05-12T21:16:19.367Z,7.92
2019-05-12T21:18:47.856Z,5.15
2019-05-12T21:21:13.740Z,3.52
2019-05-12T21:23:45.726Z,3.40
2019-05-12T21:26:12.676Z,3.10
2019-05-12T21:28:46.802Z,4.95
2019-05-12T21:31:14.176Z,4.57
2019-05-12T21:37:10.713Z,3.42
2019-05-12T21:40:41.654Z,3.90
2019-05-12T22:03:17.234Z,5.65
2019-05-12T22:07:03.892Z,3.62
2019-05-12T22:34:58.426Z,3.50
2019-05-12T22:38:04.224Z,4.50
2019-05-12T22:40:54.845Z,4.83
2019-05-12T22:43:31.346Z,5.45
2019-05-12T22:52:26.144Z,4.92
2019-05-12T22:55:32.405Z,5.33
2019-05-12T23:01:41.312Z,4.05
2019-05-12T23:04:03.822Z,6.33
2019-05-12T23:06:35.837Z,4.90
2019-05-12T23:08:59.256Z,7.58
2019-05-12T23:11:32.219Z,5.78
2019-05-12T23:13:54.585Z,4.35
2019-05-12T23:16:25.933Z,4.65
2019-05-12T23:18:50.872Z,4.10
2019-05-12T23:21:17.774Z,7.35
2019-05-12T23:23:49.953Z,4.58
2019-05-12T23:26:13.977Z,4.50
2019-05-12T23:28:46.823Z,5.03
2019-05-12T23:31:09.347Z,5.65
2019-05-12T23:33:36.680Z,5.75
2019-05-12T23:36:04.090Z,3.67
2019-05-12T23:38:30.911Z,5.05
2019-05-12T23:40:58.618Z,4.08
2019-05-12T23:43:25.270Z,5.97
2019-05-12T23:45:53.383Z,4.78
2019-05-12T23:48:20.178Z,4.72
2019-05-12T23:50:47.567Z,4.65
2019-05-12T23:53:14.285Z,4.97
2019-05-12T23:55:40.874Z,4.70
2019-05-12T23:58:08.697Z,5.70
